sensor_id;sensor_type;location;lat;lon;timestamp;P1;durP1;ratioP1;P2;durP2;ratioP2
41943;SDS011;27636;52.610;13.244;2023-02-19T00:04:25;3.63;;;1.52;;
41943;SDS011;27636;52.610;13.244;2023-02-19T00:09:29;5.63;;;1.77;;
41943;SDS011;27636;52.610;13.244;2023-02-19T00:14:32;4.60;;;1.67;;
41943;SDS011;27636;52.610;13.244;2023-02-19T00:19:36;3.20;;;1.45;;
41943;SDS011;27636;52.610;13.244;2023-02-19T00:24:41;8.50;;;2.63;;
41943;SDS011;27636;52.610;13.244;2023-02-19T00:34:48;3.15;;;1.48;;
41943;SDS011;27636;52.610;13.244;2023-02-19T00:39:53;8.95;;;1.83;;
41943;SDS011;27636;52.610;13.244;2023-02-19T00:44:56;5.53;;;1.98;;
41943;SDS011;27636;52.610;13.244;2023-02-19T00:50:00;6.90;;;2.03;;
41943;SDS011;27636;52.610;13.244;2023-02-19T00:55:05;5.18;;;2.00;;
41943;SDS011;27636;52.610;13.244;2023-02-19T01:00:10;6.00;;;1.95;;
41943;SDS011;27636;52.610;13.244;2023-02-19T01:05:16;4.38;;;1.90;;
41943;SDS011;27636;52.610;13.244;2023-02-19T01:10:21;9.82;;;1.98;;
41943;SDS011;27636;52.610;13.244;2023-02-19T01:15:25;5.47;;;2.08;;
41943;SDS011;27636;52.610;13.244;2023-02-19T01:20:29;7.43;;;2.45;;
41943;SDS011;27636;52.610;13.244;2023-02-19T01:25:33;7.80;;;3.03;;
41943;SDS011;27636;52.610;13.244;2023-02-19T01:30:39;9.88;;;4.18;;
41943;SDS011;27636;52.610;13.244;2023-02-19T01:35:43;8.02;;;3.10;;
41943;SDS011;27636;52.610;13.244;2023-02-19T01:40:53;14.27;;;3.95;;
41943;SDS011;27636;52.610;13.244;2023-02-19T01:45:58;10.13;;;3.90;;
41943;SDS011;27636;52.610;13.244;2023-02-19T01:51:02;10.50;;;5.05;;
41943;SDS011;27636;52.610;13.244;2023-02-19T01:56:10;8.77;;;3.45;;
41943;SDS011;27636;52.610;13.244;2023-02-19T02:01:16;14.48;;;5.68;;
41943;SDS011;27636;52.610;13.244;2023-02-19T02:06:20;15.00;;;4.22;;
41943;SDS011;27636;52.610;13.244;2023-02-19T02:11:27;15.57;;;4.15;;
41943;SDS011;27636;52.610;13.244;2023-02-19T02:16:33;11.75;;;4.07;;
41943;SDS011;27636;52.610;13.244;2023-02-19T02:21:49;14.25;;;5.03;;
41943;SDS011;27636;52.610;13.244;2023-02-19T02:27:05;10.97;;;4.73;;
41943;SDS011;27636;52.610;13.244;2023-02-19T02:32:20;10.60;;;3.88;;
41943;SDS011;27636;52.610;13.244;2023-02-19T02:37:27;10.98;;;5.40;;
41943;SDS011;27636;52.610;13.244;2023-02-19T02:42:37;12.93;;;5.03;;
41943;SDS011;27636;52.610;13.244;2023-02-19T02:47:49;15.70;;;5.45;;
41943;SDS011;27636;52.610;13.244;2023-02-19T02:52:57;17.50;;;4.68;;
41943;SDS011;27636;52.610;13.244;2023-02-19T02:58:23;11.52;;;4.40;;
41943;SDS011;27636;52.610;13.244;2023-02-19T03:03:38;17.65;;;4.82;;
41943;SDS011;27636;52.610;13.244;2023-02-19T03:08:46;16.08;;;4.68;;
41943;SDS011;27636;52.610;13.244;2023-02-19T03:13:55;13.85;;;5.35;;
41943;SDS011;27636;52.610;13.244;2023-02-19T03:19:24;12.50;;;4.78;;
41943;SDS011;27636;52.610;13.244;2023-02-19T03:24:31;13.85;;;4.60;;
41943;SDS011;27636;52.610;13.244;2023-02-19T03:29:57;10.32;;;3.83;;
41943;SDS011;27636;52.610;13.244;2023-02-19T03:35:10;9.65;;;4.32;;
41943;SDS011;27636;52.610;13.244;2023-02-19T03:40:17;12.20;;;3.80;;
41943;SDS011;27636;52.610;13.244;2023-02-19T03:45:23;8.18;;;3.58;;
41943;SDS011;27636;52.610;13.244;2023-02-19T03:50:38;6.57;;;3.17;;
41943;SDS011;27636;52.610;13.244;2023-02-19T03:55:48;11.32;;;3.70;;
41943;SDS011;27636;52.610;13.244;2023-02-19T04:01:01;12.25;;;4.15;;
41943;SDS011;27636;52.610;13.244;2023-02-19T04:06:12;13.63;;;3.47;;
41943;SDS011;27636;52.610;13.244;2023-02-19T04:11:17;15.23;;;3.13;;
41943;SDS011;27636;52.610;13.244;2023-02-19T04:16:26;8.27;;;2.25;;
41943;SDS011;27636;52.610;13.244;2023-02-19T04:21:32;9.23;;;3.35;;
41943;SDS011;27636;52.610;13.244;2023-02-19T04:26:38;8.60;;;2.42;;
41943;SDS011;27636;52.610;13.244;2023-02-19T04:31:43;20.23;;;4.45;;
41943;SDS011;27636;52.610;13.244;2023-02-19T04:36:48;7.63;;;2.83;;
41943;SDS011;27636;52.610;13.244;2023-02-19T04:41:51;13.98;;;3.08;;
41943;SDS011;27636;52.610;13.244;2023-02-19T04:46:54;8.30;;;2.67;;
41943;SDS011;27636;52.610;13.244;2023-02-19T04:52:01;17.35;;;3.25;;
41943;SDS011;27636;52.610;13.244;2023-02-19T04:57:04;5.95;;;1.98;;
41943;SDS011;27636;52.610;13.244;2023-02-19T05:02:08;6.25;;;2.28;;
41943;SDS011;27636;52.610;13.244;2023-02-19T05:07:13;7.57;;;2.28;;
41943;SDS011;27636;52.610;13.244;2023-02-19T05:12:16;10.57;;;2.75;;
41943;SDS011;27636;52.610;13.244;2023-02-19T05:17:20;10.45;;;2.30;;
41943;SDS011;27636;52.610;13.244;2023-02-19T05:22:24;18.40;;;3.20;;
41943;SDS011;27636;52.610;13.244;2023-02-19T05:27:29;6.95;;;2.22;;
41943;SDS011;27636;52.610;13.244;2023-02-19T05:32:33;10.13;;;2.63;;
41943;SDS011;27636;52.610;13.244;2023-02-19T05:37:38;6.63;;;2.28;;
41943;SDS011;27636;52.610;13.244;2023-02-19T05:42:42;4.07;;;1.55;;
41943;SDS011;27636;52.610;13.244;2023-02-19T05:47:45;19.05;;;2.78;;
41943;SDS011;27636;52.610;13.244;2023-02-19T05:52:50;4.97;;;2.20;;
41943;SDS011;27636;52.610;13.244;2023-02-19T05:57:53;6.25;;;2.22;;
41943;SDS011;27636;52.610;13.244;2023-02-19T06:02:57;5.57;;;1.67;;
41943;SDS011;27636;52.610;13.244;2023-02-19T06:08:03;4.78;;;2.25;;
41943;SDS011;27636;52.610;13.244;2023-02-19T06:13:07;5.45;;;2.00;;
41943;SDS011;27636;52.610;13.244;2023-02-19T06:18:11;3.27;;;1.97;;
41943;SDS011;27636;52.610;13.244;2023-02-19T06:23:16;6.25;;;2.33;;
41943;SDS011;27636;52.610;13.244;2023-02-19T06:33:24;3.55;;;1.33;;
41943;SDS011;27636;52.610;13.244;2023-02-19T06:38:29;6.40;;;1.83;;
41943;SDS011;27636;52.610;13.244;2023-02-19T06:43:33;6.78;;;2.60;;
41943;SDS011;27636;52.610;13.244;2023-02-19T06:48:37;4.80;;;1.73;;
41943;SDS011;27636;52.610;13.244;2023-02-19T06:53:43;6.57;;;2.05;;
41943;SDS011;27636;52.610;13.244;2023-02-19T06:58:47;5.57;;;2.45;;
41943;SDS011;27636;52.610;13.244;2023-02-19T07:03:51;7.07;;;2.85;;
41943;SDS011;27636;52.610;13.244;2023-02-19T07:08:56;7.10;;;2.70;;
41943;SDS011;27636;52.610;13.244;2023-02-19T07:14:01;8.45;;;3.10;;
41943;SDS011;27636;52.610;13.244;2023-02-19T07:19:05;11.60;;;4.22;;
41943;SDS011;27636;52.610;13.244;2023-02-19T07:24:10;11.07;;;3.40;;
41943;SDS011;27636;52.610;13.244;2023-02-19T07:29:13;7.32;;;2.30;;
41943;SDS011;27636;52.610;13.244;2023-02-19T07:34:18;7.07;;;2.77;;
41943;SDS011;27636;52.610;13.244;2023-02-19T07:39:22;8.38;;;2.78;;
41943;SDS011;27636;52.610;13.244;2023-02-19T07:44:25;12.40;;;2.90;;
41943;SDS011;27636;52.610;13.244;2023-02-19T07:49:48;9.85;;;3.70;;
41943;SDS011;27636;52.610;13.244;2023-02-19T07:59:59;14.80;;;2.88;;
41943;SDS011;27636;52.610;13.244;2023-02-19T08:05:04;11.53;;;3.20;;
41943;SDS011;27636;52.610;13.244;2023-02-19T08:10:09;10.90;;;2.60;;
41943;SDS011;27636;52.610;13.244;2023-02-19T08:15:31;8.40;;;2.60;;
41943;SDS011;27636;52.610;13.244;2023-02-19T08:20:35;8.20;;;2.45;;
41943;SDS011;27636;52.610;13.244;2023-02-19T08:25:40;9.90;;;2.55;;
41943;SDS011;27636;52.610;13.244;2023-02-19T08:30:44;8.68;;;1.70;;
41943;SDS011;27636;52.610;13.244;2023-02-19T08:40:53;5.30;;;2.45;;
41943;SDS011;27636;52.610;13.244;2023-02-19T08:45:57;15.43;;;2.22;;
41943;SDS011;27636;52.610;13.244;2023-02-19T08:51:01;4.32;;;1.63;;
41943;SDS011;27636;52.610;13.244;2023-02-19T08:56:09;6.95;;;2.38;;
41943;SDS011;27636;52.610;13.244;2023-02-19T09:01:15;21.15;;;2.10;;
41943;SDS011;27636;52.610;13.244;2023-02-19T09:06:20;6.70;;;1.77;;
41943;SDS011;27636;52.610;13.244;2023-02-19T09:11:24;2.05;;;1.13;;
41943;SDS011;27636;52.610;13.244;2023-02-19T09:16:28;5.37;;;1.37;;
41943;SDS011;27636;52.610;13.244;2023-02-19T09:21:32;5.70;;;1.65;;
41943;SDS011;27636;52.610;13.244;2023-02-19T09:26:36;3.58;;;1.88;;
41943;SDS011;27636;52.610;13.244;2023-02-19T09:31:40;5.22;;;1.45;;
41943;SDS011;27636;52.610;13.244;2023-02-19T09:36:43;5.07;;;1.50;;
41943;SDS011;27636;52.610;13.244;2023-02-19T09:41:51;3.17;;;1.17;;
41943;SDS011;27636;52.610;13.244;2023-02-19T09:46:59;4.85;;;1.40;;
41943;SDS011;27636;52.610;13.244;2023-02-19T09:52:05;2.05;;;0.98;;
41943;SDS011;27636;52.610;13.244;2023-02-19T09:57:15;5.40;;;1.13;;
41943;SDS011;27636;52.610;13.244;2023-02-19T10:02:22;8.18;;;1.00;;
41943;SDS011;27636;52.610;13.244;2023-02-19T10:07:30;6.45;;;1.63;;
41943;SDS011;27636;52.610;13.244;2023-02-19T10:12:42;8.85;;;0.88;;
41943;SDS011;27636;52.610;13.244;2023-02-19T10:17:48;6.63;;;1.15;;
41943;SDS011;27636;52.610;13.244;2023-02-19T10:22:52;6.25;;;1.20;;
41943;SDS011;27636;52.610;13.244;2023-02-19T10:28:02;3.50;;;1.10;;
41943;SDS011;27636;52.610;13.244;2023-02-19T10:33:08;8.52;;;0.88;;
41943;SDS011;27636;52.610;13.244;2023-02-19T10:38:12;1.90;;;0.93;;
41943;SDS011;27636;52.610;13.244;2023-02-19T10:43:21;4.47;;;0.85;;
41943;SDS011;27636;52.610;13.244;2023-02-19T10:48:34;5.20;;;0.70;;
41943;SDS011;27636;52.610;13.244;2023-02-19T10:53:41;6.32;;;1.70;;
41943;SDS011;27636;52.610;13.244;2023-02-19T10:58:47;6.70;;;0.75;;
41943;SDS011;27636;52.610;13.244;2023-02-19T11:03:51;1.27;;;0.70;;
41943;SDS011;27636;52.610;13.244;2023-02-19T11:09:22;6.23;;;1.20;;
41943;SDS011;27636;52.610;13.244;2023-02-19T11:14:30;4.57;;;1.10;;
41943;SDS011;27636;52.610;13.244;2023-02-19T11:19:35;6.38;;;1.20;;
41943;SDS011;27636;52.610;13.244;2023-02-19T11:24:41;12.27;;;1.38;;
41943;SDS011;27636;52.610;13.244;2023-02-19T11:29:52;3.05;;;0.88;;
41943;SDS011;27636;52.610;13.244;2023-02-19T11:40:20;1.55;;;0.65;;
41943;SDS011;27636;52.610;13.244;2023-02-19T11:45:34;4.50;;;1.02;;
41943;SDS011;27636;52.610;13.244;2023-02-19T11:50:56;1.77;;;0.95;;
41943;SDS011;27636;52.610;13.244;2023-02-19T11:56:09;0.50;;;0.50;;
41943;SDS011;27636;52.610;13.244;2023-02-19T12:01:20;3.83;;;0.88;;
41943;SDS011;27636;52.610;13.244;2023-02-19T12:06:30;4.55;;;1.42;;
41943;SDS011;27636;52.610;13.244;2023-02-19T12:11:43;7.63;;;1.00;;
41943;SDS011;27636;52.610;13.244;2023-02-19T12:16:59;1.13;;;0.70;;
41943;SDS011;27636;52.610;13.244;2023-02-19T12:22:16;1.40;;;0.80;;
41943;SDS011;27636;52.610;13.244;2023-02-19T12:27:33;1.23;;;0.65;;
41943;SDS011;27636;52.610;13.244;2023-02-19T12:32:48;3.80;;;0.80;;
41943;SDS011;27636;52.610;13.244;2023-02-19T12:38:07;1.42;;;0.60;;
41943;SDS011;27636;52.610;13.244;2023-02-19T12:43:18;3.03;;;0.73;;
41943;SDS011;27636;52.610;13.244;2023-02-19T12:48:26;4.55;;;1.00;;
41943;SDS011;27636;52.610;13.244;2023-02-19T12:53:36;2.33;;;0.93;;
41943;SDS011;27636;52.610;13.244;2023-02-19T12:58:44;3.67;;;0.93;;
41943;SDS011;27636;52.610;13.244;2023-02-19T13:03:52;1.80;;;0.73;;
41943;SDS011;27636;52.610;13.244;2023-02-19T13:09:10;3.40;;;0.85;;
41943;SDS011;27636;52.610;13.244;2023-02-19T13:14:18;2.38;;;0.68;;
41943;SDS011;27636;52.610;13.244;2023-02-19T13:19:27;6.53;;;1.10;;
41943;SDS011;27636;52.610;13.244;2023-02-19T13:24:33;2.65;;;0.80;;
41943;SDS011;27636;52.610;13.244;2023-02-19T13:35:19;5.05;;;1.63;;
41943;SDS011;27636;52.610;13.244;2023-02-19T13:40:30;4.60;;;1.02;;
41943;SDS011;27636;52.610;13.244;2023-02-19T13:45:36;2.30;;;0.70;;
41943;SDS011;27636;52.610;13.244;2023-02-19T13:50:43;3.33;;;0.93;;
41943;SDS011;27636;52.610;13.244;2023-02-19T13:55:48;6.68;;;1.35;;
41943;SDS011;27636;52.610;13.244;2023-02-19T14:08:07;7.00;;;1.88;;
41943;SDS011;27636;52.610;13.244;2023-02-19T14:13:11;5.10;;;1.05;;
41943;SDS011;27636;52.610;13.244;2023-02-19T14:18:43;4.05;;;0.77;;
41943;SDS011;27636;52.610;13.244;2023-02-19T14:23:49;3.08;;;0.65;;
41943;SDS011;27636;52.610;13.244;2023-02-19T14:28:55;5.82;;;0.85;;
41943;SDS011;27636;52.610;13.244;2023-02-19T14:34:00;3.38;;;0.65;;
41943;SDS011;27636;52.610;13.244;2023-02-19T14:39:09;3.17;;;0.65;;
41943;SDS011;27636;52.610;13.244;2023-02-19T14:44:17;3.80;;;0.90;;
41943;SDS011;27636;52.610;13.244;2023-02-19T14:49:25;2.40;;;0.75;;
41943;SDS011;27636;52.610;13.244;2023-02-19T14:54:34;5.10;;;1.02;;
41943;SDS011;27636;52.610;13.244;2023-02-19T14:59:50;4.13;;;0.95;;
41943;SDS011;27636;52.610;13.244;2023-02-19T15:04:58;1.20;;;0.70;;
41943;SDS011;27636;52.610;13.244;2023-02-19T15:10:05;2.80;;;0.90;;
41943;SDS011;27636;52.610;13.244;2023-02-19T15:15:14;4.60;;;0.80;;
41943;SDS011;27636;52.610;13.244;2023-02-19T15:20:22;4.68;;;0.60;;
41943;SDS011;27636;52.610;13.244;2023-02-19T15:25:28;4.18;;;0.80;;
41943;SDS011;27636;52.610;13.244;2023-02-19T15:30:35;4.07;;;0.98;;
41943;SDS011;27636;52.610;13.244;2023-02-19T15:35:40;1.63;;;0.90;;
41943;SDS011;27636;52.610;13.244;2023-02-19T15:40:44;2.55;;;0.85;;
41943;SDS011;27636;52.610;13.244;2023-02-19T15:45:56;2.45;;;1.17;;
41943;SDS011;27636;52.610;13.244;2023-02-19T15:51:06;4.03;;;0.50;;
41943;SDS011;27636;52.610;13.244;2023-02-19T15:56:16;4.53;;;1.38;;
41943;SDS011;27636;52.610;13.244;2023-02-19T16:01:30;1.27;;;0.93;;
41943;SDS011;27636;52.610;13.244;2023-02-19T16:06:49;9.57;;;2.05;;
41943;SDS011;27636;52.610;13.244;2023-02-19T16:19:01;1.90;;;0.80;;
41943;SDS011;27636;52.610;13.244;2023-02-19T16:24:10;2.40;;;1.00;;
41943;SDS011;27636;52.610;13.244;2023-02-19T16:29:19;6.53;;;2.00;;
41943;SDS011;27636;52.610;13.244;2023-02-19T16:34:29;3.30;;;0.90;;
41943;SDS011;27636;52.610;13.244;2023-02-19T16:39:42;3.20;;;1.20;;
41943;SDS011;27636;52.610;13.244;2023-02-19T16:44:46;3.75;;;1.23;;
41943;SDS011;27636;52.610;13.244;2023-02-19T16:56:59;2.05;;;1.02;;
41943;SDS011;27636;52.610;13.244;2023-02-19T17:02:03;9.35;;;3.72;;
41943;SDS011;27636;52.610;13.244;2023-02-19T17:07:08;7.60;;;2.20;;
41943;SDS011;27636;52.610;13.244;2023-02-19T17:12:16;7.25;;;2.15;;
41943;SDS011;27636;52.610;13.244;2023-02-19T17:17:21;4.80;;;1.73;;
41943;SDS011;27636;52.610;13.244;2023-02-19T17:22:24;4.53;;;2.17;;
41943;SDS011;27636;52.610;13.244;2023-02-19T17:27:30;2.67;;;1.58;;
41943;SDS011;27636;52.610;13.244;2023-02-19T17:37:36;3.85;;;2.03;;
41943;SDS011;27636;52.610;13.244;2023-02-19T17:42:41;3.92;;;1.65;;
41943;SDS011;27636;52.610;13.244;2023-02-19T17:47:44;8.70;;;2.00;;
41943;SDS011;27636;52.610;13.244;2023-02-19T17:52:48;4.72;;;1.90;;
41943;SDS011;27636;52.610;13.244;2023-02-19T17:57:53;8.55;;;3.08;;
41943;SDS011;27636;52.610;13.244;2023-02-19T18:02:56;8.60;;;4.18;;
41943;SDS011;27636;52.610;13.244;2023-02-19T18:08:00;8.30;;;3.47;;
41943;SDS011;27636;52.610;13.244;2023-02-19T18:13:04;7.50;;;3.72;;
41943;SDS011;27636;52.610;13.244;2023-02-19T18:23:13;7.65;;;3.08;;
41943;SDS011;27636;52.610;13.244;2023-02-19T18:28:18;7.00;;;3.43;;
41943;SDS011;27636;52.610;13.244;2023-02-19T18:33:21;5.40;;;2.70;;
41943;SDS011;27636;52.610;13.244;2023-02-19T18:38:25;6.10;;;3.15;;
41943;SDS011;27636;52.610;13.244;2023-02-19T18:43:30;9.00;;;3.53;;
41943;SDS011;27636;52.610;13.244;2023-02-19T18:48:34;5.47;;;2.30;;
41943;SDS011;27636;52.610;13.244;2023-02-19T18:53:37;10.98;;;3.70;;
41943;SDS011;27636;52.610;13.244;2023-02-19T18:58:42;8.55;;;4.00;;
41943;SDS011;27636;52.610;13.244;2023-02-19T19:03:45;8.95;;;3.22;;
41943;SDS011;27636;52.610;13.244;2023-02-19T19:08:49;8.43;;;3.63;;
41943;SDS011;27636;52.610;13.244;2023-02-19T19:13:53;12.02;;;4.20;;
41943;SDS011;27636;52.610;13.244;2023-02-19T19:18:57;8.15;;;3.90;;
41943;SDS011;27636;52.610;13.244;2023-02-19T19:24:01;6.22;;;3.13;;
41943;SDS011;27636;52.610;13.244;2023-02-19T19:29:07;7.18;;;3.20;;
41943;SDS011;27636;52.610;13.244;2023-02-19T19:34:11;8.88;;;2.90;;
41943;SDS011;27636;52.610;13.244;2023-02-19T19:39:15;7.82;;;3.28;;
41943;SDS011;27636;52.610;13.244;2023-02-19T19:44:20;4.63;;;2.35;;
41943;SDS011;27636;52.610;13.244;2023-02-19T19:49:23;7.35;;;2.95;;
41943;SDS011;27636;52.610;13.244;2023-02-19T19:54:27;8.15;;;3.78;;
41943;SDS011;27636;52.610;13.244;2023-02-19T19:59:32;11.18;;;3.63;;
41943;SDS011;27636;52.610;13.244;2023-02-19T20:04:35;6.07;;;2.72;;
41943;SDS011;27636;52.610;13.244;2023-02-19T20:09:38;7.22;;;3.20;;
41943;SDS011;27636;52.610;13.244;2023-02-19T20:14:43;6.65;;;3.38;;
41943;SDS011;27636;52.610;13.244;2023-02-19T20:19:47;5.40;;;2.70;;
41943;SDS011;27636;52.610;13.244;2023-02-19T20:24:51;8.48;;;3.60;;
41943;SDS011;27636;52.610;13.244;2023-02-19T20:29:56;13.27;;;6.05;;
41943;SDS011;27636;52.610;13.244;2023-02-19T20:35:00;10.80;;;5.20;;
41943;SDS011;27636;52.610;13.244;2023-02-19T20:40:04;18.08;;;5.72;;
41943;SDS011;27636;52.610;13.244;2023-02-19T20:45:10;17.50;;;6.03;;
41943;SDS011;27636;52.610;13.244;2023-02-19T20:50:16;10.93;;;5.13;;
41943;SDS011;27636;52.610;13.244;2023-02-19T20:55:25;15.32;;;5.72;;
41943;SDS011;27636;52.610;13.244;2023-02-19T21:00:31;11.88;;;5.15;;
41943;SDS011;27636;52.610;13.244;2023-02-19T21:10:38;11.32;;;3.83;;
41943;SDS011;27636;52.610;13.244;2023-02-19T21:15:43;8.18;;;4.18;;
41943;SDS011;27636;52.610;13.244;2023-02-19T21:20:47;9.77;;;3.58;;
41943;SDS011;27636;52.610;13.244;2023-02-19T21:25:50;9.75;;;4.05;;
41943;SDS011;27636;52.610;13.244;2023-02-19T21:30:57;5.60;;;2.88;;
41943;SDS011;27636;52.610;13.244;2023-02-19T21:36:01;11.77;;;3.97;;
41943;SDS011;27636;52.610;13.244;2023-02-19T21:41:04;4.35;;;2.47;;
41943;SDS011;27636;52.610;13.244;2023-02-19T21:46:09;7.25;;;2.35;;
41943;SDS011;27636;52.610;13.244;2023-02-19T21:51:20;5.75;;;2.38;;
41943;SDS011;27636;52.610;13.244;2023-02-19T21:56:31;3.85;;;1.25;;
41943;SDS011;27636;52.610;13.244;2023-02-19T22:01:39;5.03;;;1.83;;
41943;SDS011;27636;52.610;13.244;2023-02-19T22:06:45;5.55;;;2.38;;
41943;SDS011;27636;52.610;13.244;2023-02-19T22:11:48;11.48;;;3.38;;
41943;SDS011;27636;52.610;13.244;2023-02-19T22:16:53;8.57;;;2.33;;
41943;SDS011;27636;52.610;13.244;2023-02-19T22:21:57;14.85;;;2.85;;
41943;SDS011;27636;52.610;13.244;2023-02-19T22:27:00;4.38;;;2.05;;
41943;SDS011;27636;52.610;13.244;2023-02-19T22:32:05;4.68;;;1.98;;
41943;SDS011;27636;52.610;13.244;2023-02-19T22:37:09;5.50;;;1.67;;
41943;SDS011;27636;52.610;13.244;2023-02-19T22:42:12;8.18;;;2.40;;
41943;SDS011;27636;52.610;13.244;2023-02-19T22:47:18;16.58;;;3.35;;
41943;SDS011;27636;52.610;13.244;2023-02-19T22:52:21;5.70;;;1.92;;
41943;SDS011;27636;52.610;13.244;2023-02-19T22:57:29;4.53;;;1.90;;
41943;SDS011;27636;52.610;13.244;2023-02-19T23:02:35;6.00;;;4.15;;
41943;SDS011;27636;52.610;13.244;2023-02-19T23:07:40;5.50;;;1.90;;
41943;SDS011;27636;52.610;13.244;2023-02-19T23:12:45;2.55;;;1.38;;
41943;SDS011;27636;52.610;13.244;2023-02-19T23:17:50;4.70;;;1.75;;
41943;SDS011;27636;52.610;13.244;2023-02-19T23:22:53;3.80;;;2.17;;
41943;SDS011;27636;52.610;13.244;2023-02-19T23:27:57;9.95;;;2.15;;
41943;SDS011;27636;52.610;13.244;2023-02-19T23:33:02;3.75;;;1.77;;
41943;SDS011;27636;52.610;13.244;2023-02-19T23:38:05;5.05;;;2.35;;
41943;SDS011;27636;52.610;13.244;2023-02-19T23:43:10;4.27;;;1.57;;
41943;SDS011;27636;52.610;13.244;2023-02-19T23:48:15;5.72;;;1.63;;
41943;SDS011;27636;52.610;13.244;2023-02-19T23:53:19;10.13;;;2.13;;
41943;SDS011;27636;52.610;13.244;2023-02-19T23:58:22;6.57;;;2.15;;
